Aeroporto :
LOGIN :

Iscrizione | Disclaimer

   EN    FR    IT 

 










Sommario :    VFR   VFR Marginale   IFR   IFR Intensivo   IFR Molto Intensivo
Visibilità : 
Base nubi : 
>= 8 km
>= 3000ft
5 / 8 km
1000 / 3000 ft
1500m / 5 km
500 / 1000 ft
800 / 1500m
200 / 500 ft
< 800m
< 200 ft
Simboli :   Temporali  Nebbia  Neve Forte  Precipitazioni Forti  Vento > 20 kt
SIGMETs :   Varie  Temporali  Ghiacco  Turbolenza  Onda orograficha  Ceneri Vulcaniche






- Altitudine del aeroporto : 741 ft
- Codice IATA : PED


LKPD - Pardubice AB

ULTIMO METAR :
  • 261730Z 04006KT 9999 FEW049 16/05 Q1032 NOSIG RMK BLU BLU

METARs OBSOLETI :
  • 261700Z 36006KT 320V050 9999 FEW048 16/05 Q1031 NOSIG RMK BLU BLU
  • 261630Z 04008KT 340V070 9999 FEW047 17/06 Q1031 NOSIG RMK BLU BLU
  • 261600Z 01008KT 320V060 9999 FEW046 17/05 Q1031 NOSIG RMK BLU BLU
  • 261530Z 02007KT 350V060 9999 FEW047 17/05 Q1031 NOSIG RMK BLU BLU
  • 261500Z 01009KT 330V050 9999 FEW046 17/05 Q1031 NOSIG RMK BLU BLU

TAF TAF LKPD
Valido dal 26 a 12 ore il 27 a 12 ore UTC


261100Z 2612/2712 35008KT 9999 BKN045
TEMPO 2612/2617 03016KT
PROB30
TEMPO 2612/2615 6000 SHRA BKN030TCU
BECMG 2616/2618 CAVOK
BECMG 2622/2700 28006KT
TEMPO 2708/2711 SCT035



MetMap, La meteo Aeronautica in un colpo d'occhio ! - Copyright ORBIFLY Dicembre 2007 - Disclaimer

ORBIFLY MET'MAP TEAM :

Programmazione e sviluppo : Alexandra Zaïnal
Concezione : Baudouin d'Aumeries
Aiuto per la programmazione : Marc-Olivier Méhu
Supporto tecnico e logistico : Manuel Goepfert
Aiuto per la traduzione : Arnaldo La Scala

Contatto : metmap@orbifly.com




FONTI E CREDITI :

   NOAA